Terminal Aerodrome Forecast
Issued by NWS

Home | Current Version | Previous Version | Text Only | Print | Product List | Glossary On
Versions: 1 2 3 4 5 6 7 8 9 10 11 12 13 14 15 16 17
169
FTUS43 KJKL 190202 AAA
TAFSME
TAF AMD
KSME 190202Z 1902/1924 00000KT P6SM SCT250
     FM191400 00000KT P6SM BKN090
     FM191600 VRB03KT P6SM VCSH BKN090
     FM192000 12005KT 3SM -SHRA OVC025=

USA.gov is the U.S. government's official web portal to all federal, state and local government web resources and services.